sensor_id;sensor_type;location;lat;lon;timestamp;P1;durP1;ratioP1;P2;durP2;ratioP2
37115;SDS011;23025;41.996;23.098;2023-04-03T00:01:31;3.17;;;3.08;;
37115;SDS011;23025;41.996;23.098;2023-04-03T00:03:58;2.90;;;2.80;;
37115;SDS011;23025;41.996;23.098;2023-04-03T00:06:26;3.05;;;2.95;;
37115;SDS011;23025;41.996;23.098;2023-04-03T00:08:53;2.90;;;2.80;;
37115;SDS011;23025;41.996;23.098;2023-04-03T00:11:19;3.63;;;3.42;;
37115;SDS011;23025;41.996;23.098;2023-04-03T00:13:46;4.43;;;4.22;;
37115;SDS011;23025;41.996;23.098;2023-04-03T00:16:13;2.13;;;2.03;;
37115;SDS011;23025;41.996;23.098;2023-04-03T00:18:40;4.60;;;4.40;;
37115;SDS011;23025;41.996;23.098;2023-04-03T00:21:07;2.80;;;2.67;;
37115;SDS011;23025;41.996;23.098;2023-04-03T00:23:35;2.58;;;2.47;;
37115;SDS011;23025;41.996;23.098;2023-04-03T00:26:01;2.97;;;2.80;;
37115;SDS011;23025;41.996;23.098;2023-04-03T00:28:28;5.25;;;5.05;;
37115;SDS011;23025;41.996;23.098;2023-04-03T00:30:55;3.45;;;3.33;;
37115;SDS011;23025;41.996;23.098;2023-04-03T00:33:21;3.42;;;3.33;;
37115;SDS011;23025;41.996;23.098;2023-04-03T00:35:49;3.83;;;3.63;;
37115;SDS011;23025;41.996;23.098;2023-04-03T00:38:16;2.60;;;2.50;;
37115;SDS011;23025;41.996;23.098;2023-04-03T00:40:45;3.72;;;3.42;;
37115;SDS011;23025;41.996;23.098;2023-04-03T00:43:13;2.38;;;2.28;;
37115;SDS011;23025;41.996;23.098;2023-04-03T00:45:41;3.50;;;3.40;;
37115;SDS011;23025;41.996;23.098;2023-04-03T00:48:09;3.42;;;3.33;;
37115;SDS011;23025;41.996;23.098;2023-04-03T00:50:38;3.17;;;3.08;;
37115;SDS011;23025;41.996;23.098;2023-04-03T00:53:05;3.40;;;3.22;;
37115;SDS011;23025;41.996;23.098;2023-04-03T00:55:32;2.42;;;2.33;;
37115;SDS011;23025;41.996;23.098;2023-04-03T00:58:01;2.70;;;2.60;;
37115;SDS011;23025;41.996;23.098;2023-04-03T01:00:28;3.83;;;3.63;;
37115;SDS011;23025;41.996;23.098;2023-04-03T01:02:55;1.92;;;1.83;;
37115;SDS011;23025;41.996;23.098;2023-04-03T01:05:23;2.88;;;2.78;;
37115;SDS011;23025;41.996;23.098;2023-04-03T01:07:50;2.08;;;1.98;;
37115;SDS011;23025;41.996;23.098;2023-04-03T01:10:17;2.08;;;1.98;;
37115;SDS011;23025;41.996;23.098;2023-04-03T01:12:46;2.47;;;2.38;;
37115;SDS011;23025;41.996;23.098;2023-04-03T01:15:16;2.75;;;2.65;;
37115;SDS011;23025;41.996;23.098;2023-04-03T01:17:44;2.38;;;2.28;;
37115;SDS011;23025;41.996;23.098;2023-04-03T01:22:56;3.25;;;3.15;;
37115;SDS011;23025;41.996;23.098;2023-04-03T01:25:25;3.72;;;3.53;;
37115;SDS011;23025;41.996;23.098;2023-04-03T01:27:51;3.05;;;2.95;;
37115;SDS011;23025;41.996;23.098;2023-04-03T01:30:20;2.95;;;2.83;;
37115;SDS011;23025;41.996;23.098;2023-04-03T01:32:51;3.58;;;3.47;;
37115;SDS011;23025;41.996;23.098;2023-04-03T01:35:18;2.67;;;2.58;;
37115;SDS011;23025;41.996;23.098;2023-04-03T01:37:44;3.33;;;3.20;;
37115;SDS011;23025;41.996;23.098;2023-04-03T01:40:11;2.42;;;2.33;;
37115;SDS011;23025;41.996;23.098;2023-04-03T01:42:37;3.45;;;3.35;;
37115;SDS011;23025;41.996;23.098;2023-04-03T01:45:04;5.38;;;5.18;;
37115;SDS011;23025;41.996;23.098;2023-04-03T01:47:31;1.75;;;1.65;;
37115;SDS011;23025;41.996;23.098;2023-04-03T01:49:59;2.15;;;2.05;;
37115;SDS011;23025;41.996;23.098;2023-04-03T01:52:26;1.83;;;1.73;;
37115;SDS011;23025;41.996;23.098;2023-04-03T01:54:52;2.50;;;2.40;;
37115;SDS011;23025;41.996;23.098;2023-04-03T01:57:19;2.30;;;2.20;;
37115;SDS011;23025;41.996;23.098;2023-04-03T01:59:45;2.50;;;2.40;;
37115;SDS011;23025;41.996;23.098;2023-04-03T02:02:13;2.40;;;2.30;;
37115;SDS011;23025;41.996;23.098;2023-04-03T02:04:40;2.53;;;2.42;;
37115;SDS011;23025;41.996;23.098;2023-04-03T02:07:07;2.00;;;1.90;;
37115;SDS011;23025;41.996;23.098;2023-04-03T02:09:34;2.00;;;1.90;;
37115;SDS011;23025;41.996;23.098;2023-04-03T02:12:01;4.32;;;4.13;;
37115;SDS011;23025;41.996;23.098;2023-04-03T02:14:27;3.28;;;2.60;;
37115;SDS011;23025;41.996;23.098;2023-04-03T02:16:54;3.17;;;3.08;;
37115;SDS011;23025;41.996;23.098;2023-04-03T02:19:21;3.00;;;2.85;;
37115;SDS011;23025;41.996;23.098;2023-04-03T02:21:48;1.65;;;1.55;;
37115;SDS011;23025;41.996;23.098;2023-04-03T02:24:17;2.90;;;2.70;;
37115;SDS011;23025;41.996;23.098;2023-04-03T02:26:43;2.35;;;2.25;;
37115;SDS011;23025;41.996;23.098;2023-04-03T02:29:10;2.15;;;2.05;;
37115;SDS011;23025;41.996;23.098;2023-04-03T02:31:37;2.40;;;2.30;;
37115;SDS011;23025;41.996;23.098;2023-04-03T02:34:03;2.08;;;1.98;;
37115;SDS011;23025;41.996;23.098;2023-04-03T02:36:30;2.78;;;2.67;;
37115;SDS011;23025;41.996;23.098;2023-04-03T02:38:57;3.33;;;3.22;;
37115;SDS011;23025;41.996;23.098;2023-04-03T02:41:25;2.90;;;2.80;;
37115;SDS011;23025;41.996;23.098;2023-04-03T02:43:58;2.08;;;1.98;;
37115;SDS011;23025;41.996;23.098;2023-04-03T02:46:25;2.80;;;2.70;;
37115;SDS011;23025;41.996;23.098;2023-04-03T02:48:51;2.95;;;2.85;;
37115;SDS011;23025;41.996;23.098;2023-04-03T02:51:18;3.20;;;3.10;;
37115;SDS011;23025;41.996;23.098;2023-04-03T02:53:44;3.33;;;3.22;;
37115;SDS011;23025;41.996;23.098;2023-04-03T02:56:11;2.78;;;2.67;;
37115;SDS011;23025;41.996;23.098;2023-04-03T02:58:39;4.65;;;4.45;;
37115;SDS011;23025;41.996;23.098;2023-04-03T03:01:06;2.63;;;2.53;;
37115;SDS011;23025;41.996;23.098;2023-04-03T03:03:32;3.03;;;2.92;;
37115;SDS011;23025;41.996;23.098;2023-04-03T03:06:03;7.30;;;7.00;;
37115;SDS011;23025;41.996;23.098;2023-04-03T03:08:29;3.33;;;3.22;;
37115;SDS011;23025;41.996;23.098;2023-04-03T03:10:56;4.05;;;3.85;;
37115;SDS011;23025;41.996;23.098;2023-04-03T03:13:23;3.20;;;3.10;;
37115;SDS011;23025;41.996;23.098;2023-04-03T03:15:51;2.92;;;2.83;;
37115;SDS011;23025;41.996;23.098;2023-04-03T03:18:17;2.25;;;2.15;;
37115;SDS011;23025;41.996;23.098;2023-04-03T03:20:44;2.95;;;2.85;;
37115;SDS011;23025;41.996;23.098;2023-04-03T03:23:10;3.45;;;3.15;;
37115;SDS011;23025;41.996;23.098;2023-04-03T03:25:37;2.42;;;2.33;;
37115;SDS011;23025;41.996;23.098;2023-04-03T03:28:04;2.85;;;2.75;;
37115;SDS011;23025;41.996;23.098;2023-04-03T03:30:31;2.47;;;2.38;;
37115;SDS011;23025;41.996;23.098;2023-04-03T03:32:59;2.83;;;2.72;;
37115;SDS011;23025;41.996;23.098;2023-04-03T03:35:25;3.72;;;3.60;;
37115;SDS011;23025;41.996;23.098;2023-04-03T03:37:52;2.80;;;2.70;;
37115;SDS011;23025;41.996;23.098;2023-04-03T03:40:18;3.92;;;3.63;;
37115;SDS011;23025;41.996;23.098;2023-04-03T03:42:45;2.45;;;2.35;;
37115;SDS011;23025;41.996;23.098;2023-04-03T03:45:11;4.03;;;3.83;;
37115;SDS011;23025;41.996;23.098;2023-04-03T03:47:38;3.33;;;3.22;;
37115;SDS011;23025;41.996;23.098;2023-04-03T03:50:07;2.55;;;2.45;;
37115;SDS011;23025;41.996;23.098;2023-04-03T03:52:34;4.20;;;4.00;;
37115;SDS011;23025;41.996;23.098;2023-04-03T03:55:01;2.83;;;2.72;;
37115;SDS011;23025;41.996;23.098;2023-04-03T03:57:27;2.28;;;2.17;;
37115;SDS011;23025;41.996;23.098;2023-04-03T03:59:54;3.58;;;3.38;;
37115;SDS011;23025;41.996;23.098;2023-04-03T04:02:20;2.47;;;2.28;;
37115;SDS011;23025;41.996;23.098;2023-04-03T04:04:48;2.03;;;1.92;;
37115;SDS011;23025;41.996;23.098;2023-04-03T04:07:16;2.53;;;2.42;;
37115;SDS011;23025;41.996;23.098;2023-04-03T04:09:42;1.83;;;1.73;;
37115;SDS011;23025;41.996;23.098;2023-04-03T04:12:09;3.70;;;3.50;;
37115;SDS011;23025;41.996;23.098;2023-04-03T04:14:36;2.78;;;2.67;;
37115;SDS011;23025;41.996;23.098;2023-04-03T04:17:02;3.05;;;2.95;;
37115;SDS011;23025;41.996;23.098;2023-04-03T04:19:29;3.45;;;3.15;;
37115;SDS011;23025;41.996;23.098;2023-04-03T04:21:55;3.75;;;3.50;;
37115;SDS011;23025;41.996;23.098;2023-04-03T04:24:23;4.05;;;3.88;;
37115;SDS011;23025;41.996;23.098;2023-04-03T04:26:50;2.05;;;1.95;;
37115;SDS011;23025;41.996;23.098;2023-04-03T04:29:17;3.53;;;3.42;;
37115;SDS011;23025;41.996;23.098;2023-04-03T04:31:43;3.78;;;3.67;;
37115;SDS011;23025;41.996;23.098;2023-04-03T04:34:10;2.38;;;2.28;;
37115;SDS011;23025;41.996;23.098;2023-04-03T04:36:37;3.83;;;3.63;;
37115;SDS011;23025;41.996;23.098;2023-04-03T04:39:04;3.08;;;2.97;;
37115;SDS011;23025;41.996;23.098;2023-04-03T04:41:32;3.60;;;3.50;;
37115;SDS011;23025;41.996;23.098;2023-04-03T04:43:59;2.22;;;2.13;;
37115;SDS011;23025;41.996;23.098;2023-04-03T04:46:26;3.38;;;3.28;;
37115;SDS011;23025;41.996;23.098;2023-04-03T04:48:52;2.67;;;2.58;;
37115;SDS011;23025;41.996;23.098;2023-04-03T04:51:19;3.67;;;3.55;;
37115;SDS011;23025;41.996;23.098;2023-04-03T04:53:45;3.67;;;3.55;;
37115;SDS011;23025;41.996;23.098;2023-04-03T04:56:12;2.97;;;2.88;;
37115;SDS011;23025;41.996;23.098;2023-04-03T04:58:40;4.45;;;4.25;;
37115;SDS011;23025;41.996;23.098;2023-04-03T05:01:07;3.33;;;3.22;;
37115;SDS011;23025;41.996;23.098;2023-04-03T05:03:34;3.50;;;3.30;;
37115;SDS011;23025;41.996;23.098;2023-04-03T05:06:01;3.90;;;3.75;;
37115;SDS011;23025;41.996;23.098;2023-04-03T05:08:27;3.83;;;3.63;;
37115;SDS011;23025;41.996;23.098;2023-04-03T05:10:54;7.30;;;6.70;;
37115;SDS011;23025;41.996;23.098;2023-04-03T05:13:21;8.73;;;8.23;;
37115;SDS011;23025;41.996;23.098;2023-04-03T05:15:49;5.10;;;4.80;;
37115;SDS011;23025;41.996;23.098;2023-04-03T05:18:15;5.28;;;4.97;;
37115;SDS011;23025;41.996;23.098;2023-04-03T05:20:42;4.38;;;4.07;;
37115;SDS011;23025;41.996;23.098;2023-04-03T05:23:09;7.07;;;6.78;;
37115;SDS011;23025;41.996;23.098;2023-04-03T05:25:36;3.72;;;3.53;;
37115;SDS011;23025;41.996;23.098;2023-04-03T05:28:06;3.35;;;2.78;;
37115;SDS011;23025;41.996;23.098;2023-04-03T05:30:34;5.10;;;4.80;;
37115;SDS011;23025;41.996;23.098;2023-04-03T05:33:20;4.45;;;4.05;;
37115;SDS011;23025;41.996;23.098;2023-04-03T05:36:03;2.70;;;2.60;;
37115;SDS011;23025;41.996;23.098;2023-04-03T05:38:30;6.43;;;6.13;;
37115;SDS011;23025;41.996;23.098;2023-04-03T05:41:09;4.05;;;3.85;;
37115;SDS011;23025;41.996;23.098;2023-04-03T05:43:36;4.13;;;3.88;;
37115;SDS011;23025;41.996;23.098;2023-04-03T05:46:09;6.43;;;6.13;;
37115;SDS011;23025;41.996;23.098;2023-04-03T05:48:38;6.93;;;6.55;;
37115;SDS011;23025;41.996;23.098;2023-04-03T05:51:06;3.55;;;3.33;;
37115;SDS011;23025;41.996;23.098;2023-04-03T05:53:34;3.72;;;3.53;;
37115;SDS011;23025;41.996;23.098;2023-04-03T05:56:02;4.10;;;3.90;;
37115;SDS011;23025;41.996;23.098;2023-04-03T05:58:29;3.78;;;3.60;;
37115;SDS011;23025;41.996;23.098;2023-04-03T06:00:55;5.43;;;5.13;;
37115;SDS011;23025;41.996;23.098;2023-04-03T06:03:22;6.70;;;6.25;;
37115;SDS011;23025;41.996;23.098;2023-04-03T06:05:50;5.28;;;4.90;;
37115;SDS011;23025;41.996;23.098;2023-04-03T06:08:17;4.15;;;3.85;;
37115;SDS011;23025;41.996;23.098;2023-04-03T06:10:44;5.28;;;4.95;;
37115;SDS011;23025;41.996;23.098;2023-04-03T06:13:11;4.05;;;3.85;;
37115;SDS011;23025;41.996;23.098;2023-04-03T06:15:38;4.32;;;4.13;;
37115;SDS011;23025;41.996;23.098;2023-04-03T06:18:05;6.18;;;5.53;;
37115;SDS011;23025;41.996;23.098;2023-04-03T06:20:31;6.18;;;5.88;;
37115;SDS011;23025;41.996;23.098;2023-04-03T06:23:00;4.97;;;4.75;;
37115;SDS011;23025;41.996;23.098;2023-04-03T06:25:28;5.10;;;4.80;;
37115;SDS011;23025;41.996;23.098;2023-04-03T06:27:56;5.15;;;4.85;;
37115;SDS011;23025;41.996;23.098;2023-04-03T06:30:23;6.70;;;6.30;;
37115;SDS011;23025;41.996;23.098;2023-04-03T06:32:51;4.85;;;4.45;;
37115;SDS011;23025;41.996;23.098;2023-04-03T06:35:18;6.90;;;6.47;;
37115;SDS011;23025;41.996;23.098;2023-04-03T06:37:46;3.80;;;3.45;;
37115;SDS011;23025;41.996;23.098;2023-04-03T06:40:18;6.50;;;6.10;;
37115;SDS011;23025;41.996;23.098;2023-04-03T06:42:45;4.85;;;3.85;;
37115;SDS011;23025;41.996;23.098;2023-04-03T06:45:12;4.95;;;4.53;;
37115;SDS011;23025;41.996;23.098;2023-04-03T06:47:40;4.30;;;4.07;;
37115;SDS011;23025;41.996;23.098;2023-04-03T06:50:12;5.28;;;4.97;;
37115;SDS011;23025;41.996;23.098;2023-04-03T06:52:40;5.40;;;4.88;;
37115;SDS011;23025;41.996;23.098;2023-04-03T06:55:09;5.50;;;5.20;;
37115;SDS011;23025;41.996;23.098;2023-04-03T06:57:37;5.10;;;4.88;;
37115;SDS011;23025;41.996;23.098;2023-04-03T07:00:04;8.38;;;4.18;;
37115;SDS011;23025;41.996;23.098;2023-04-03T07:02:32;5.93;;;5.63;;
37115;SDS011;23025;41.996;23.098;2023-04-03T07:04:59;5.57;;;5.28;;
37115;SDS011;23025;41.996;23.098;2023-04-03T07:07:25;4.25;;;4.05;;
37115;SDS011;23025;41.996;23.098;2023-04-03T07:09:52;5.65;;;5.28;;
37115;SDS011;23025;41.996;23.098;2023-04-03T07:12:19;4.80;;;4.60;;
37115;SDS011;23025;41.996;23.098;2023-04-03T07:14:48;6.18;;;5.70;;
37115;SDS011;23025;41.996;23.098;2023-04-03T07:17:14;3.47;;;3.38;;
37115;SDS011;23025;41.996;23.098;2023-04-03T07:19:41;4.68;;;4.38;;
37115;SDS011;23025;41.996;23.098;2023-04-03T07:22:08;5.68;;;5.43;;
37115;SDS011;23025;41.996;23.098;2023-04-03T07:24:37;4.65;;;4.43;;
37115;SDS011;23025;41.996;23.098;2023-04-03T07:27:05;5.78;;;5.45;;
37115;SDS011;23025;41.996;23.098;2023-04-03T07:29:33;5.50;;;5.25;;
37115;SDS011;23025;41.996;23.098;2023-04-03T07:32:01;5.20;;;4.75;;
37115;SDS011;23025;41.996;23.098;2023-04-03T07:34:28;5.40;;;5.10;;
37115;SDS011;23025;41.996;23.098;2023-04-03T07:36:55;7.97;;;7.38;;
37115;SDS011;23025;41.996;23.098;2023-04-03T07:39:22;4.80;;;4.50;;
37115;SDS011;23025;41.996;23.098;2023-04-03T07:41:50;6.22;;;5.85;;
37115;SDS011;23025;41.996;23.098;2023-04-03T07:44:27;6.20;;;5.90;;
37115;SDS011;23025;41.996;23.098;2023-04-03T07:46:57;5.40;;;5.10;;
37115;SDS011;23025;41.996;23.098;2023-04-03T07:49:26;6.95;;;6.43;;
37115;SDS011;23025;41.996;23.098;2023-04-03T07:51:53;7.88;;;7.32;;
37115;SDS011;23025;41.996;23.098;2023-04-03T07:54:26;5.38;;;5.07;;
37115;SDS011;23025;41.996;23.098;2023-04-03T07:56:53;5.72;;;5.43;;
37115;SDS011;23025;41.996;23.098;2023-04-03T07:59:20;4.75;;;4.35;;
37115;SDS011;23025;41.996;23.098;2023-04-03T08:01:50;5.00;;;4.75;;
37115;SDS011;23025;41.996;23.098;2023-04-03T08:04:36;5.57;;;5.22;;
37115;SDS011;23025;41.996;23.098;2023-04-03T08:07:03;5.00;;;4.80;;
37115;SDS011;23025;41.996;23.098;2023-04-03T08:09:30;6.03;;;5.72;;
37115;SDS011;23025;41.996;23.098;2023-04-03T08:11:58;9.35;;;8.75;;
37115;SDS011;23025;41.996;23.098;2023-04-03T08:14:26;5.95;;;5.60;;
37115;SDS011;23025;41.996;23.098;2023-04-03T08:17:05;7.00;;;6.55;;
37115;SDS011;23025;41.996;23.098;2023-04-03T08:19:36;6.90;;;6.53;;
37115;SDS011;23025;41.996;23.098;2023-04-03T08:22:07;6.35;;;5.95;;
37115;SDS011;23025;41.996;23.098;2023-04-03T08:24:34;7.40;;;7.10;;
37115;SDS011;23025;41.996;23.098;2023-04-03T08:27:01;13.32;;;12.75;;
37115;SDS011;23025;41.996;23.098;2023-04-03T08:29:32;7.35;;;6.90;;
37115;SDS011;23025;41.996;23.098;2023-04-03T08:31:59;5.78;;;5.50;;
37115;SDS011;23025;41.996;23.098;2023-04-03T08:34:26;8.73;;;6.38;;
37115;SDS011;23025;41.996;23.098;2023-04-03T08:36:54;7.05;;;6.72;;
37115;SDS011;23025;41.996;23.098;2023-04-03T08:39:21;7.20;;;6.80;;
37115;SDS011;23025;41.996;23.098;2023-04-03T08:41:47;7.95;;;7.63;;
37115;SDS011;23025;41.996;23.098;2023-04-03T08:44:15;7.43;;;7.10;;
37115;SDS011;23025;41.996;23.098;2023-04-03T08:46:47;16.58;;;15.88;;
37115;SDS011;23025;41.996;23.098;2023-04-03T08:49:21;7.10;;;6.57;;
37115;SDS011;23025;41.996;23.098;2023-04-03T08:51:49;15.60;;;14.85;;
37115;SDS011;23025;41.996;23.098;2023-04-03T08:54:21;7.18;;;6.88;;
37115;SDS011;23025;41.996;23.098;2023-04-03T08:56:50;19.27;;;18.48;;
37115;SDS011;23025;41.996;23.098;2023-04-03T08:59:18;12.68;;;12.07;;
37115;SDS011;23025;41.996;23.098;2023-04-03T09:01:48;13.00;;;12.43;;
37115;SDS011;23025;41.996;23.098;2023-04-03T09:04:16;17.15;;;16.55;;
37115;SDS011;23025;41.996;23.098;2023-04-03T09:06:44;14.73;;;14.13;;
37115;SDS011;23025;41.996;23.098;2023-04-03T09:09:14;18.50;;;17.77;;
37115;SDS011;23025;41.996;23.098;2023-04-03T09:11:50;15.82;;;15.13;;
37115;SDS011;23025;41.996;23.098;2023-04-03T09:14:21;17.13;;;16.42;;
37115;SDS011;23025;41.996;23.098;2023-04-03T09:16:52;17.85;;;17.05;;
37115;SDS011;23025;41.996;23.098;2023-04-03T09:19:22;6.70;;;6.32;;
37115;SDS011;23025;41.996;23.098;2023-04-03T09:21:50;6.90;;;6.50;;
37115;SDS011;23025;41.996;23.098;2023-04-03T09:24:16;7.13;;;6.68;;
37115;SDS011;23025;41.996;23.098;2023-04-03T09:26:44;7.63;;;7.32;;
37115;SDS011;23025;41.996;23.098;2023-04-03T09:29:15;9.38;;;8.98;;
37115;SDS011;23025;41.996;23.098;2023-04-03T09:31:43;9.40;;;9.00;;
37115;SDS011;23025;41.996;23.098;2023-04-03T09:34:15;9.35;;;8.75;;
37115;SDS011;23025;41.996;23.098;2023-04-03T09:36:46;7.60;;;7.20;;
37115;SDS011;23025;41.996;23.098;2023-04-03T09:39:14;6.70;;;6.35;;
37115;SDS011;23025;41.996;23.098;2023-04-03T09:41:41;5.68;;;5.18;;
37115;SDS011;23025;41.996;23.098;2023-04-03T09:44:21;6.97;;;6.57;;
37115;SDS011;23025;41.996;23.098;2023-04-03T09:46:48;7.40;;;7.00;;
37115;SDS011;23025;41.996;23.098;2023-04-03T09:49:15;5.82;;;5.53;;
37115;SDS011;23025;41.996;23.098;2023-04-03T09:51:42;8.32;;;7.80;;
37115;SDS011;23025;41.996;23.098;2023-04-03T09:57:01;16.88;;;16.17;;
37115;SDS011;23025;41.996;23.098;2023-04-03T09:59:31;9.30;;;8.70;;
37115;SDS011;23025;41.996;23.098;2023-04-03T10:01:58;9.48;;;8.93;;
37115;SDS011;23025;41.996;23.098;2023-04-03T10:04:25;10.52;;;10.02;;
37115;SDS011;23025;41.996;23.098;2023-04-03T10:07:02;10.50;;;9.77;;
37115;SDS011;23025;41.996;23.098;2023-04-03T10:09:29;8.23;;;7.82;;
37115;SDS011;23025;41.996;23.098;2023-04-03T10:11:57;7.63;;;7.22;;
37115;SDS011;23025;41.996;23.098;2023-04-03T10:14:24;7.70;;;7.22;;
37115;SDS011;23025;41.996;23.098;2023-04-03T10:16:53;7.53;;;7.13;;
37115;SDS011;23025;41.996;23.098;2023-04-03T10:19:31;7.38;;;7.05;;
37115;SDS011;23025;41.996;23.098;2023-04-03T10:21:59;7.25;;;6.68;;
37115;SDS011;23025;41.996;23.098;2023-04-03T10:24:28;9.23;;;8.82;;
37115;SDS011;23025;41.996;23.098;2023-04-03T10:26:57;10.43;;;9.93;;
37115;SDS011;23025;41.996;23.098;2023-04-03T10:29:27;8.18;;;7.68;;
37115;SDS011;23025;41.996;23.098;2023-04-03T10:32:01;19.48;;;18.58;;
37115;SDS011;23025;41.996;23.098;2023-04-03T10:34:31;9.15;;;8.55;;
37115;SDS011;23025;41.996;23.098;2023-04-03T10:37:01;11.55;;;11.05;;
37115;SDS011;23025;41.996;23.098;2023-04-03T10:39:33;6.28;;;5.97;;
37115;SDS011;23025;41.996;23.098;2023-04-03T10:42:04;9.43;;;8.57;;
37115;SDS011;23025;41.996;23.098;2023-04-03T10:44:36;8.63;;;8.00;;
37115;SDS011;23025;41.996;23.098;2023-04-03T10:47:10;8.00;;;7.57;;
37115;SDS011;23025;41.996;23.098;2023-04-03T10:49:41;16.80;;;15.60;;
37115;SDS011;23025;41.996;23.098;2023-04-03T10:52:13;12.90;;;11.82;;
37115;SDS011;23025;41.996;23.098;2023-04-03T10:54:41;24.52;;;17.02;;
37115;SDS011;23025;41.996;23.098;2023-04-03T10:57:10;13.32;;;11.50;;
37115;SDS011;23025;41.996;23.098;2023-04-03T10:59:38;23.60;;;14.73;;
37115;SDS011;23025;41.996;23.098;2023-04-03T11:02:07;12.75;;;11.73;;
37115;SDS011;23025;41.996;23.098;2023-04-03T11:04:39;10.02;;;9.23;;
37115;SDS011;23025;41.996;23.098;2023-04-03T11:07:08;10.32;;;9.45;;
37115;SDS011;23025;41.996;23.098;2023-04-03T11:09:37;10.13;;;9.40;;
37115;SDS011;23025;41.996;23.098;2023-04-03T11:12:09;8.07;;;7.50;;
37115;SDS011;23025;41.996;23.098;2023-04-03T11:14:36;18.65;;;17.65;;
37115;SDS011;23025;41.996;23.098;2023-04-03T11:17:06;11.00;;;10.23;;
37115;SDS011;23025;41.996;23.098;2023-04-03T11:19:41;12.82;;;12.13;;
37115;SDS011;23025;41.996;23.098;2023-04-03T11:24:56;8.85;;;8.25;;
37115;SDS011;23025;41.996;23.098;2023-04-03T11:27:23;23.13;;;21.98;;
37115;SDS011;23025;41.996;23.098;2023-04-03T11:29:51;21.92;;;21.02;;
37115;SDS011;23025;41.996;23.098;2023-04-03T11:32:27;9.45;;;8.90;;
37115;SDS011;23025;41.996;23.098;2023-04-03T11:34:58;8.90;;;8.48;;
37115;SDS011;23025;41.996;23.098;2023-04-03T11:37:26;20.30;;;19.48;;
37115;SDS011;23025;41.996;23.098;2023-04-03T11:39:55;18.05;;;17.30;;
37115;SDS011;23025;41.996;23.098;2023-04-03T11:42:25;10.73;;;10.10;;
37115;SDS011;23025;41.996;23.098;2023-04-03T11:45:16;16.75;;;15.88;;
37115;SDS011;23025;41.996;23.098;2023-04-03T11:47:48;7.57;;;7.18;;
37115;SDS011;23025;41.996;23.098;2023-04-03T11:50:39;6.95;;;6.60;;
37115;SDS011;23025;41.996;23.098;2023-04-03T11:53:26;9.05;;;8.55;;
37115;SDS011;23025;41.996;23.098;2023-04-03T11:55:54;8.50;;;7.90;;
37115;SDS011;23025;41.996;23.098;2023-04-03T11:58:22;11.02;;;9.80;;
37115;SDS011;23025;41.996;23.098;2023-04-03T12:00:49;9.50;;;8.70;;
37115;SDS011;23025;41.996;23.098;2023-04-03T12:09:13;18.00;;;17.10;;
37115;SDS011;23025;41.996;23.098;2023-04-03T12:11:47;12.45;;;11.65;;
37115;SDS011;23025;41.996;23.098;2023-04-03T12:14:15;12.98;;;11.98;;
37115;SDS011;23025;41.996;23.098;2023-04-03T12:16:43;16.80;;;15.98;;
37115;SDS011;23025;41.996;23.098;2023-04-03T12:19:30;11.20;;;10.02;;
37115;SDS011;23025;41.996;23.098;2023-04-03T12:22:05;8.30;;;7.75;;
37115;SDS011;23025;41.996;23.098;2023-04-03T12:24:34;10.68;;;10.00;;
37115;SDS011;23025;41.996;23.098;2023-04-03T12:27:02;13.13;;;12.15;;
37115;SDS011;23025;41.996;23.098;2023-04-03T12:29:33;9.02;;;8.50;;
37115;SDS011;23025;41.996;23.098;2023-04-03T12:32:04;8.63;;;8.13;;
37115;SDS011;23025;41.996;23.098;2023-04-03T12:34:42;21.30;;;20.23;;
37115;SDS011;23025;41.996;23.098;2023-04-03T12:37:16;20.80;;;19.80;;
37115;SDS011;23025;41.996;23.098;2023-04-03T12:39:49;24.35;;;23.00;;
37115;SDS011;23025;41.996;23.098;2023-04-03T12:42:21;19.92;;;19.02;;
37115;SDS011;23025;41.996;23.098;2023-04-03T12:44:53;6.80;;;6.40;;
37115;SDS011;23025;41.996;23.098;2023-04-03T12:47:23;10.57;;;9.88;;
37115;SDS011;23025;41.996;23.098;2023-04-03T12:49:52;18.55;;;17.50;;
37115;SDS011;23025;41.996;23.098;2023-04-03T12:52:22;8.95;;;8.35;;
37115;SDS011;23025;41.996;23.098;2023-04-03T12:54:52;9.50;;;9.00;;
37115;SDS011;23025;41.996;23.098;2023-04-03T12:57:19;8.20;;;7.72;;
37115;SDS011;23025;41.996;23.098;2023-04-03T12:59:46;15.35;;;14.40;;
37115;SDS011;23025;41.996;23.098;2023-04-03T13:02:21;18.80;;;17.80;;
37115;SDS011;23025;41.996;23.098;2023-04-03T13:04:49;9.73;;;8.95;;
37115;SDS011;23025;41.996;23.098;2023-04-03T13:07:20;6.93;;;6.63;;
37115;SDS011;23025;41.996;23.098;2023-04-03T13:09:56;9.55;;;9.05;;
37115;SDS011;23025;41.996;23.098;2023-04-03T13:12:22;7.63;;;7.22;;
37115;SDS011;23025;41.996;23.098;2023-04-03T13:14:52;8.32;;;7.93;;
37115;SDS011;23025;41.996;23.098;2023-04-03T13:17:19;7.53;;;7.00;;
37115;SDS011;23025;41.996;23.098;2023-04-03T13:19:46;7.63;;;7.13;;
37115;SDS011;23025;41.996;23.098;2023-04-03T13:22:17;6.82;;;6.43;;
37115;SDS011;23025;41.996;23.098;2023-04-03T13:24:48;8.25;;;7.78;;
37115;SDS011;23025;41.996;23.098;2023-04-03T13:27:17;9.57;;;8.98;;
37115;SDS011;23025;41.996;23.098;2023-04-03T13:29:44;10.77;;;10.18;;
37115;SDS011;23025;41.996;23.098;2023-04-03T13:32:16;10.15;;;9.65;;
37115;SDS011;23025;41.996;23.098;2023-04-03T13:34:45;10.90;;;10.20;;
37115;SDS011;23025;41.996;23.098;2023-04-03T13:37:19;12.77;;;12.00;;
37115;SDS011;23025;41.996;23.098;2023-04-03T13:39:55;12.73;;;11.90;;
37115;SDS011;23025;41.996;23.098;2023-04-03T13:42:24;12.63;;;11.90;;
37115;SDS011;23025;41.996;23.098;2023-04-03T13:45:06;12.30;;;11.50;;
37115;SDS011;23025;41.996;23.098;2023-04-03T13:47:37;14.77;;;13.88;;
37115;SDS011;23025;41.996;23.098;2023-04-03T13:50:11;15.88;;;14.65;;
37115;SDS011;23025;41.996;23.098;2023-04-03T13:52:39;12.35;;;10.80;;
37115;SDS011;23025;41.996;23.098;2023-04-03T13:55:14;12.93;;;12.05;;
37115;SDS011;23025;41.996;23.098;2023-04-03T13:57:49;9.43;;;8.82;;
37115;SDS011;23025;41.996;23.098;2023-04-03T14:00:36;11.45;;;10.68;;
37115;SDS011;23025;41.996;23.098;2023-04-03T14:03:12;10.50;;;9.80;;
37115;SDS011;23025;41.996;23.098;2023-04-03T14:05:38;9.68;;;9.18;;
37115;SDS011;23025;41.996;23.098;2023-04-03T14:08:05;8.90;;;8.38;;
37115;SDS011;23025;41.996;23.098;2023-04-03T14:10:32;8.35;;;7.88;;
37115;SDS011;23025;41.996;23.098;2023-04-03T14:13:00;8.13;;;7.63;;
37115;SDS011;23025;41.996;23.098;2023-04-03T14:15:27;9.65;;;9.05;;
37115;SDS011;23025;41.996;23.098;2023-04-03T14:17:54;18.00;;;17.10;;
37115;SDS011;23025;41.996;23.098;2023-04-03T14:20:23;10.40;;;9.73;;
37115;SDS011;23025;41.996;23.098;2023-04-03T14:22:50;9.85;;;9.30;;
37115;SDS011;23025;41.996;23.098;2023-04-03T14:25:17;10.07;;;9.43;;
37115;SDS011;23025;41.996;23.098;2023-04-03T14:27:44;7.65;;;7.25;;
37115;SDS011;23025;41.996;23.098;2023-04-03T14:30:14;11.77;;;10.88;;
37115;SDS011;23025;41.996;23.098;2023-04-03T14:32:43;8.80;;;8.38;;
37115;SDS011;23025;41.996;23.098;2023-04-03T14:35:10;8.45;;;8.05;;
37115;SDS011;23025;41.996;23.098;2023-04-03T14:37:36;9.90;;;9.45;;
37115;SDS011;23025;41.996;23.098;2023-04-03T14:40:03;8.75;;;8.35;;
37115;SDS011;23025;41.996;23.098;2023-04-03T14:42:31;8.50;;;8.10;;
37115;SDS011;23025;41.996;23.098;2023-04-03T14:44:58;14.02;;;13.38;;
37115;SDS011;23025;41.996;23.098;2023-04-03T14:47:27;8.15;;;7.53;;
37115;SDS011;23025;41.996;23.098;2023-04-03T14:49:54;8.32;;;8.02;;
37115;SDS011;23025;41.996;23.098;2023-04-03T14:52:21;10.20;;;9.57;;
37115;SDS011;23025;41.996;23.098;2023-04-03T14:54:49;7.53;;;7.05;;